Time;durP1;ratioP1;P1;durP2;ratioP2;P2;SDS_P1;SDS_P2;PMS_P1;PMS_P2;Temp;Humidity;BMP_temperature;BMP_pressure;BME280_temperature;BME280_humidity;BME280_pressure;Samples;Min_cycle;Max_cycle;Signal;HPM_P1;HPM_P2
2021/03/31 00:01:37;;;;;;;66.43;39.50;;;307.80;1843.20;;;;;;5073439;28;20021;-74
2021/03/31 00:04:03;;;;;;;69.95;39.30;;;307.70;1843.20;;;;;;5073353;28;20024;-73
2021/03/31 00:06:29;;;;;;;56.85;37.13;;;307.70;1817.60;;;;;;5073192;28;20028;-69
2021/03/31 00:08:55;;;;;;;70.25;40.38;;;307.70;1843.20;;;;;;5073093;28;20025;-74
2021/03/31 00:11:21;;;;;;;81.63;42.50;;;307.60;1843.20;;;;;;5073120;28;20020;-76
2021/03/31 00:13:47;;;;;;;72.47;41.58;;;307.70;1843.20;;;;;;5073494;28;20025;-76
2021/03/31 00:16:13;;;;;;;77.90;44.22;;;307.70;1843.20;;;;;;5073435;28;20499;-75
2021/03/31 00:18:39;;;;;;;119.70;54.47;;;307.70;1843.20;;;;;;5073203;28;20111;-75
2021/03/31 00:21:06;;;;;;;114.05;54.95;;;307.70;1843.20;;;;;;5073141;28;20140;-75
2021/03/31 00:23:32;;;;;;;107.78;55.45;;;307.60;1843.20;;;;;;5073391;28;20472;-76
2021/03/31 00:25:59;;;;;;;102.72;52.75;;;307.60;1843.20;;;;;;5055198;28;20028;-75
2021/03/31 00:28:26;;;;;;;85.57;49.00;;;307.60;1843.20;;;;;;5073118;28;20020;-70
2021/03/31 00:30:53;;;;;;;87.93;48.08;;;307.60;1843.20;;;;;;5073125;28;20105;-76
2021/03/31 00:33:20;;;;;;;75.07;41.33;;;307.60;1868.80;;;;;;5073304;28;20033;-75
2021/03/31 00:35:46;;;;;;;78.70;44.70;;;307.70;1843.20;;;;;;5073352;28;20052;-75
2021/03/31 00:38:12;;;;;;;88.15;47.80;;;307.70;1843.20;;;;;;5072958;28;20381;-75
2021/03/31 00:40:49;;;;;;;81.30;46.97;;;307.70;1868.80;;;;;;5073165;28;20036;-76
2021/03/31 00:43:16;;;;;;;89.40;47.75;;;307.80;1868.80;;;;;;5073005;28;20032;-76
2021/03/31 00:45:43;;;;;;;72.55;44.92;;;307.80;1843.20;;;;;;5073165;28;20044;-77
2021/03/31 00:48:14;;;;;;;76.32;44.80;;;307.90;1843.20;;;;;;5073352;28;20078;-83
2021/03/31 00:50:45;;;;;;;76.43;43.78;;;307.90;1817.60;;;;;;5072904;28;20472;-75
2021/03/31 00:53:18;;;;;;;71.10;43.53;;;307.90;1843.20;;;;;;5072945;28;20020;-77
2021/03/31 00:55:44;;;;;;;71.22;42.90;;;307.90;1843.20;;;;;;5054885;28;20020;-69
2021/03/31 00:58:10;;;;;;;73.10;43.03;;;307.90;1843.20;;;;;;5072945;28;20564;-69
2021/03/31 01:00:36;;;;;;;78.80;44.10;;;307.90;1817.60;;;;;;5073191;28;20117;-75
2021/03/31 01:03:02;;;;;;;71.47;44.00;;;307.90;1817.60;;;;;;5072742;28;20028;-75
2021/03/31 01:05:30;;;;;;;72.53;45.05;;;307.90;1843.20;;;;;;5073273;28;20035;-75
2021/03/31 01:07:57;;;;;;;73.80;45.72;;;307.90;1843.20;;;;;;5072754;28;20025;-69
2021/03/31 01:10:29;;;;;;;71.70;43.00;;;307.90;1843.20;;;;;;5072972;28;20055;-74
2021/03/31 01:13:33;;;;;;;69.22;43.65;;;307.90;1843.20;;;;;;5072884;28;20029;-75
2021/03/31 01:16:27;;;;;;;69.63;43.88;;;307.90;1843.20;;;;;;5072773;28;20481;-68
2021/03/31 01:19:15;;;;;;;70.20;44.08;;;308.00;1843.20;;;;;;5073391;28;20038;-74
2021/03/31 01:21:46;;;;;;;76.30;45.35;;;308.10;1843.20;;;;;;5076307;28;20358;-74
2021/03/31 01:24:38;;;;;;;77.28;46.22;;;308.10;1843.20;;;;;;5076249;28;20496;-73
2021/03/31 01:27:35;;;;;;;65.00;41.33;;;308.10;1843.20;;;;;;5075687;28;20038;-75
2021/03/31 01:30:18;;;;;;;70.25;41.65;;;307.90;1843.20;;;;;;5017016;28;20060;-74
2021/03/31 01:33:01;;;;;;;61.20;39.72;;;307.80;1843.20;;;;;;5076429;28;20025;-73
2021/03/31 01:35:28;;;;;;;67.97;40.37;;;307.80;1843.20;;;;;;5076234;28;20020;-74
2021/03/31 01:38:06;;;;;;;66.82;41.00;;;308.10;1843.20;;;;;;5076101;28;20013;-73
2021/03/31 01:40:37;;;;;;;62.25;39.47;;;307.70;1843.20;;;;;;5076249;28;20416;-77
2021/03/31 01:43:10;;;;;;;65.95;41.15;;;307.70;1843.20;;;;;;5076351;28;20048;-76
2021/03/31 01:45:38;;;;;;;63.95;40.53;;;307.80;1868.80;;;;;;5076034;28;20029;-69
2021/03/31 01:48:14;;;;;;;62.97;40.15;;;307.80;1868.80;;;;;;5075887;28;20021;-76
2021/03/31 01:50:42;;;;;;;60.03;40.03;;;307.80;1843.20;;;;;;5075908;28;20029;-76
2021/03/31 01:53:09;;;;;;;66.50;42.33;;;307.80;1843.20;;;;;;5076244;28;20017;-77
2021/03/31 01:55:36;;;;;;;63.90;40.65;;;307.70;1843.20;;;;;;5075744;28;20017;-69
2021/03/31 01:58:03;;;;;;;70.22;40.63;;;307.80;1843.20;;;;;;5075750;28;20016;-77
2021/03/31 02:00:31;;;;;;;64.30;38.97;;;307.80;1843.20;;;;;;5075715;28;20065;-76
2021/03/31 02:02:59;;;;;;;65.85;39.47;;;307.80;1843.20;;;;;;5075707;28;20025;-74
2021/03/31 02:05:26;;;;;;;67.35;40.30;;;307.90;1843.20;;;;;;5075860;28;20056;-77
2021/03/31 02:07:53;;;;;;;67.70;38.42;;;307.90;1817.60;;;;;;5075615;28;20489;-76
2021/03/31 02:10:23;;;;;;;69.43;38.35;;;307.90;1817.60;;;;;;5075802;28;20037;-71
2021/03/31 02:12:51;;;;;;;64.65;38.03;;;307.90;1817.60;;;;;;5076411;28;20027;-76
2021/03/31 02:15:24;;;;;;;59.67;35.90;;;307.90;1843.20;;;;;;5075486;28;20111;-77
2021/03/31 02:17:51;;;;;;;62.53;37.05;;;307.80;1817.60;;;;;;5075803;28;20025;-74
2021/03/31 02:20:19;;;;;;;63.60;37.78;;;307.80;1817.60;;;;;;5075227;28;20044;-76
2021/03/31 02:22:47;;;;;;;62.45;36.20;;;307.80;1817.60;;;;;;5075405;28;20028;-76
2021/03/31 02:25:14;;;;;;;59.97;35.88;;;307.70;1817.60;;;;;;5075229;28;20052;-70
2021/03/31 02:27:40;;;;;;;60.72;38.20;;;307.70;1843.20;;;;;;5075424;28;20017;-70
2021/03/31 02:30:08;;;;;;;65.20;38.75;;;307.60;1843.20;;;;;;5074928;28;20048;-76
2021/03/31 02:32:36;;;;;;;66.22;40.58;;;307.50;1868.80;;;;;;5075110;28;20025;-76
2021/03/31 02:35:04;;;;;;;72.68;45.38;;;307.50;1843.20;;;;;;5076132;28;20039;-76
2021/03/31 02:37:31;;;;;;;77.00;45.72;;;307.60;1843.20;;;;;;5056928;28;20476;-75
2021/03/31 02:39:59;;;;;;;67.30;42.90;;;307.50;1843.20;;;;;;5075043;28;20458;-76
2021/03/31 02:42:26;;;;;;;76.28;44.22;;;307.50;1868.80;;;;;;5074800;28;20024;-77
2021/03/31 02:44:56;;;;;;;74.63;42.20;;;307.50;1868.80;;;;;;5075630;28;20074;-77
2021/03/31 02:47:25;;;;;;;72.43;42.28;;;307.50;1843.20;;;;;;5075254;28;20070;-77
2021/03/31 02:49:56;;;;;;;61.08;39.20;;;307.60;1843.20;;;;;;5074663;28;20012;-76
2021/03/31 02:52:23;;;;;;;63.60;37.90;;;307.50;1894.40;;;;;;5074674;28;20055;-77
2021/03/31 02:54:50;;;;;;;63.60;38.47;;;307.50;1894.40;;;;;;5074708;28;20248;-76
2021/03/31 02:57:18;;;;;;;53.05;36.53;;;307.50;1894.40;;;;;;5074821;28;20052;-76
2021/03/31 02:59:46;;;;;;;67.68;39.65;;;307.50;1894.40;;;;;;5056534;28;20042;-77
2021/03/31 03:02:18;;;;;;;64.65;38.45;;;307.50;1868.80;;;;;;5074722;28;20025;-75
2021/03/31 03:04:48;;;;;;;60.40;36.15;;;307.60;1868.80;;;;;;5074807;28;20021;-70
2021/03/31 03:07:15;;;;;;;60.75;36.50;;;307.50;1894.40;;;;;;5074696;28;20479;-77
2021/03/31 03:09:44;;;;;;;63.72;36.58;;;307.60;1894.40;;;;;;5074375;28;20099;-76
2021/03/31 03:12:12;;;;;;;61.55;35.92;;;307.60;1894.40;;;;;;5074208;28;20055;-70
2021/03/31 03:14:41;;;;;;;80.22;46.50;;;307.60;1868.80;;;;;;5074234;28;20162;-77
2021/03/31 03:17:07;;;;;;;79.03;44.70;;;307.60;1894.40;;;;;;5074397;28;20024;-77
2021/03/31 03:19:33;;;;;;;71.35;42.92;;;307.60;1894.40;;;;;;5074577;28;20385;-77
2021/03/31 03:22:01;;;;;;;68.50;41.83;;;307.60;1868.80;;;;;;5074033;28;20477;-69
2021/03/31 03:24:29;;;;;;;58.92;34.50;;;307.60;1868.80;;;;;;5073990;28;20474;-74
2021/03/31 03:26:56;;;;;;;59.28;34.05;;;307.60;1894.40;;;;;;5073920;28;20029;-68
2021/03/31 03:29:22;;;;;;;55.55;34.08;;;307.40;1920.00;;;;;;5073854;28;20072;-74
2021/03/31 03:31:49;;;;;;;54.05;33.70;;;307.40;1920.00;;;;;;5073963;28;20429;-74
2021/03/31 03:34:17;;;;;;;58.63;35.65;;;307.50;1920.00;;;;;;5073923;28;20017;-77
2021/03/31 03:36:43;;;;;;;58.67;34.78;;;307.40;1920.00;;;;;;5073841;28;20452;-77
2021/03/31 03:39:10;;;;;;;56.97;35.45;;;307.50;1920.00;;;;;;5073964;28;20037;-70
2021/03/31 03:41:36;;;;;;;61.63;35.10;;;307.50;1920.00;;;;;;5073369;28;20116;-73
2021/03/31 03:44:02;;;;;;;57.10;34.03;;;307.50;1920.00;;;;;;5073663;28;20099;-72
2021/03/31 03:46:31;;;;;;;64.65;36.50;;;307.50;1920.00;;;;;;5073693;28;20027;-74
2021/03/31 03:48:59;;;;;;;69.80;37.22;;;307.50;1920.00;;;;;;5073656;28;20103;-73
2021/03/31 03:51:25;;;;;;;64.22;36.47;;;307.50;1920.00;;;;;;5073518;28;20082;-76
2021/03/31 03:53:53;;;;;;;66.72;35.95;;;307.50;1920.00;;;;;;5074262;28;20070;-77
2021/03/31 03:56:19;;;;;;;50.92;33.35;;;307.60;1920.00;;;;;;5073521;28;20504;-70
2021/03/31 03:58:45;;;;;;;57.20;33.78;;;307.60;1920.00;;;;;;5055536;28;20072;-68
2021/03/31 04:01:11;;;;;;;59.00;33.45;;;307.60;1920.00;;;;;;5073341;28;20511;-68
2021/03/31 04:03:37;;;;;;;57.30;34.22;;;307.70;1920.00;;;;;;5073722;28;20028;-73
2021/03/31 04:06:03;;;;;;;65.80;33.53;;;307.70;1920.00;;;;;;5073400;28;20514;-73
2021/03/31 04:08:29;;;;;;;66.07;36.15;;;307.80;1894.40;;;;;;5073216;28;20029;-68
2021/03/31 04:10:57;;;;;;;69.45;36.13;;;307.80;1920.00;;;;;;5073297;28;20032;-74
2021/03/31 04:13:24;;;;;;;70.40;34.80;;;307.80;1920.00;;;;;;5073539;28;20404;-73
2021/03/31 04:16:10;;;;;;;67.43;36.17;;;307.80;1894.40;;;;;;5073244;28;20191;-68
2021/03/31 04:18:39;;;;;;;74.63;35.28;;;307.90;1894.40;;;;;;5073417;28;20414;-77
2021/03/31 04:21:07;;;;;;;64.30;33.38;;;307.90;1894.40;;;;;;5073178;28;20032;-68
2021/03/31 04:23:33;;;;;;;57.92;30.88;;;307.80;1894.40;;;;;;5073113;28;20024;-73
2021/03/31 04:25:59;;;;;;;48.28;30.00;;;307.80;1894.40;;;;;;5073257;28;20031;-70
2021/03/31 04:28:27;;;;;;;53.70;31.08;;;307.90;1868.80;;;;;;5055174;28;20016;-72
2021/03/31 04:30:55;;;;;;;49.53;29.20;;;307.90;1868.80;;;;;;5073056;28;20045;-74
2021/03/31 04:33:25;;;;;;;56.10;30.40;;;307.90;1868.80;;;;;;5073344;28;20032;-74
2021/03/31 04:35:53;;;;;;;45.35;28.77;;;307.80;1868.80;;;;;;5073766;28;20025;-73
2021/03/31 04:38:19;;;;;;;53.85;30.83;;;307.80;1868.80;;;;;;5073285;28;20492;-72
2021/03/31 04:40:55;;;;;;;44.40;29.88;;;307.80;1868.80;;;;;;5072904;28;20033;-73
2021/03/31 04:43:29;;;;;;;44.60;27.40;;;307.90;1868.80;;;;;;5073074;28;20035;-73
2021/03/31 04:45:59;;;;;;;43.00;27.15;;;307.90;1868.80;;;;;;5072935;28;20031;-73
2021/03/31 04:48:25;;;;;;;44.10;27.63;;;307.90;1843.20;;;;;;5073799;28;20104;-73
2021/03/31 04:50:51;;;;;;;46.30;30.80;;;307.90;1843.20;;;;;;5073178;28;20049;-74
2021/03/31 04:53:17;;;;;;;47.13;30.63;;;308.00;1843.20;;;;;;5072929;28;20429;-73
2021/03/31 04:55:43;;;;;;;50.95;29.70;;;333.00;1868.80;;;;;;5076423;28;20044;-73
2021/03/31 04:58:09;;;;;;;38.40;27.52;;;308.00;1817.60;;;;;;5077196;28;20096;-69
2021/03/31 05:00:38;;;;;;;45.15;29.10;;;308.10;1817.60;;;;;;5077109;28;20058;-74
2021/03/31 05:03:06;;;;;;;45.78;29.88;;;308.10;1792.00;;;;;;5076877;28;20016;-73
2021/03/31 05:05:32;;;;;;;46.65;28.20;;;332.80;1817.60;;;;;;5076952;28;20029;-73
2021/03/31 05:07:58;;;;;;;31.75;23.10;;;332.80;1817.60;;;;;;5076667;28;20496;-74
2021/03/31 05:10:25;;;;;;;39.42;26.08;;;332.90;1792.00;;;;;;5058704;28;20028;-75
2021/03/31 05:12:51;;;;;;;55.90;44.05;;;332.90;1792.00;;;;;;5094570;28;20043;-72
2021/03/31 05:15:18;;;;;;;43.83;31.73;;;332.90;1792.00;;;;;;5096838;28;20067;-73
2021/03/31 05:17:44;;;;;;;38.17;23.80;;;333.20;1792.00;;;;;;5096798;28;20045;-68
2021/03/31 05:20:10;;;;;;;33.95;20.35;;;332.80;1792.00;;;;;;5096659;28;20040;-71
2021/03/31 05:22:36;;;;;;;31.10;21.10;;;332.90;1792.00;;;;;;5096684;28;20020;-74
2021/03/31 05:25:03;;;;;;;28.75;19.75;;;332.80;1792.00;;;;;;5078458;28;20598;-74
2021/03/31 05:27:29;;;;;;;24.60;18.17;;;332.90;1792.00;;;;;;5096842;28;20032;-68
2021/03/31 05:29:55;;;;;;;39.75;26.23;;;333.00;1766.40;;;;;;5096262;28;20403;-75
2021/03/31 05:32:21;;;;;;;40.25;26.25;;;332.90;1792.00;;;;;;5093826;28;20032;-73
2021/03/31 05:34:47;;;;;;;30.95;20.17;;;332.90;1766.40;;;;;;5076174;28;20033;-74
2021/03/31 05:37:13;;;;;;;30.45;20.88;;;333.00;1766.40;;;;;;5076068;28;20056;-74
2021/03/31 05:39:39;;;;;;;28.67;20.20;;;333.00;1792.00;;;;;;5076011;28;20398;-73
2021/03/31 05:42:08;;;;;;;29.60;18.77;;;333.00;1792.00;;;;;;5076225;28;20099;-74
2021/03/31 05:44:35;;;;;;;41.42;24.90;;;333.00;1792.00;;;;;;5076377;28;20028;-75
2021/03/31 05:47:03;;;;;;;68.90;37.90;;;333.00;1792.00;;;;;;5076184;28;20494;-75
2021/03/31 05:49:30;;;;;;;82.95;47.95;;;333.00;1792.00;;;;;;5075920;28;20037;-74
2021/03/31 05:51:57;;;;;;;61.65;33.80;;;333.10;1792.00;;;;;;5075858;28;20473;-68
2021/03/31 05:54:24;;;;;;;55.13;30.13;;;333.10;1792.00;;;;;;5076132;28;20035;-74
2021/03/31 05:56:52;;;;;;;56.03;33.65;;;333.20;1792.00;;;;;;5075732;28;20028;-70
2021/03/31 05:59:18;;;;;;;65.65;38.63;;;333.20;1792.00;;;;;;5075670;28;20029;-68
2021/03/31 06:01:46;;;;;;;74.60;38.00;;;333.30;1792.00;;;;;;5075667;28;20029;-68
2021/03/31 06:04:14;;;;;;;61.33;38.25;;;333.30;1766.40;;;;;;5075769;28;20032;-70
2021/03/31 06:06:40;;;;;;;101.40;62.60;;;333.40;1766.40;;;;;;5075282;28;20477;-70
2021/03/31 06:09:09;;;;;;;113.28;68.45;;;333.50;1740.80;;;;;;5077896;28;20035;-74
2021/03/31 06:11:57;;;;;;;116.68;63.65;;;333.60;1740.80;;;;;;5075610;28;20063;-76
2021/03/31 06:14:34;;;;;;;112.57;63.22;;;333.70;1715.20;;;;;;5093785;28;20020;-71
2021/03/31 06:17:13;;;;;;;110.60;61.60;;;358.40;1715.20;;;;;;5095710;28;20027;-74
2021/03/31 06:19:41;;;;;;;63.20;36.38;;;358.60;1689.60;;;;;;5095500;28;20060;-73
2021/03/31 06:22:23;;;;;;;50.95;27.15;;;358.80;1689.60;;;;;;5095278;28;20069;-74
2021/03/31 06:25:24;;;;;;;37.70;21.98;;;359.00;1664.00;;;;;;5075232;28;20029;-71
2021/03/31 06:27:54;;;;;;;29.38;17.55;;;359.30;1638.40;;;;;;5100639;28;20032;-74
2021/03/31 06:30:24;;;;;;;26.92;16.20;;;359.30;1612.80;;;;;;5115506;28;20138;-76
2021/03/31 06:32:53;;;;;;;22.58;15.40;;;384.10;1561.60;;;;;;5115888;28;20444;-74
2021/03/31 06:35:25;;;;;;;28.60;18.25;;;384.40;1536.00;;;;;;5087317;22;20386;-70
2021/03/31 06:38:02;;;;;;;27.75;18.30;;;384.50;1484.80;;;;;;5087841;28;20475;-64
2021/03/31 06:40:45;;;;;;;21.58;14.05;;;384.60;1484.80;;;;;;5094161;28;20032;-62
2021/03/31 06:43:23;;;;;;;23.17;16.00;;;384.90;1459.20;;;;;;5094154;28;20024;-62
2021/03/31 06:48:20;;;;;;;23.40;14.02;;;410.00;1459.20;;;;;;5088274;28;20100;-69
2021/03/31 06:50:46;;;;;;;21.23;12.85;;;410.20;1433.60;;;;;;5061830;28;20111;-66
2021/03/31 06:53:12;;;;;;;27.67;16.15;;;410.10;1433.60;;;;;;5074593;28;20100;-62
2021/03/31 06:55:39;;;;;;;26.50;15.50;;;410.00;1433.60;;;;;;5069749;28;20025;-64
2021/03/31 06:58:09;;;;;;;30.38;14.68;;;410.10;1433.60;;;;;;5064656;28;20039;-71
2021/03/31 07:00:37;;;;;;;20.08;13.30;;;410.00;1433.60;;;;;;5058195;28;20041;-63
2021/03/31 07:03:07;;;;;;;28.38;16.30;;;409.90;1433.60;;;;;;5077211;28;20021;-72
2021/03/31 07:05:37;;;;;;;28.67;15.20;;;409.90;1408.00;;;;;;5062306;28;20036;-72
2021/03/31 07:08:08;;;;;;;22.58;14.93;;;410.00;1408.00;;;;;;5064075;28;20115;-70
2021/03/31 07:10:51;;;;;;;27.10;17.65;;;410.00;1433.60;;;;;;5074587;28;20384;-73
2021/03/31 07:13:34;;;;;;;21.20;14.50;;;410.00;1433.60;;;;;;5074183;28;20481;-63
2021/03/31 07:16:02;;;;;;;22.83;13.60;;;410.00;1408.00;;;;;;5074353;28;20035;-65
2021/03/31 07:18:31;;;;;;;26.17;14.13;;;410.10;1433.60;;;;;;5065308;28;20385;-61
2021/03/31 07:20:58;;;;;;;19.60;13.75;;;410.10;1408.00;;;;;;5072067;28;20093;-64
2021/03/31 07:23:25;;;;;;;20.95;14.30;;;410.20;1408.00;;;;;;5067836;28;20023;-73
2021/03/31 07:25:53;;;;;;;25.42;14.13;;;410.30;1408.00;;;;;;5085578;28;20158;-73
2021/03/31 07:28:24;;;;;;;21.08;13.68;;;410.30;1382.40;;;;;;5068520;28;20052;-73
2021/03/31 07:30:51;;;;;;;23.33;13.60;;;410.40;1382.40;;;;;;5073842;28;20116;-71
2021/03/31 07:33:24;;;;;;;26.95;13.85;;;435.20;1382.40;;;;;;5073799;28;20052;-63
2021/03/31 07:35:51;;;;;;;27.70;14.32;;;435.30;1382.40;;;;;;5061810;28;20048;-66
2021/03/31 07:38:20;;;;;;;25.50;13.15;;;435.40;1382.40;;;;;;5067090;28;20032;-61
2021/03/31 07:40:48;;;;;;;23.27;13.00;;;435.40;1356.80;;;;;;5065877;28;20036;-70
2021/03/31 07:43:34;;;;;;;24.42;13.18;;;435.60;1331.20;;;;;;5085817;28;20020;-72
2021/03/31 07:46:09;;;;;;;21.90;12.13;;;435.70;1331.20;;;;;;5080439;28;20090;-68
2021/03/31 07:48:37;;;;;;;21.58;12.30;;;435.80;1305.60;;;;;;5066397;28;20024;-68
2021/03/31 07:51:19;;;;;;;24.45;12.13;;;435.90;1280.00;;;;;;5077653;28;20063;-73
2021/03/31 07:53:50;;;;;;;23.52;11.32;;;436.00;1305.60;;;;;;5070744;28;20111;-68
2021/03/31 07:56:18;;;;;;;22.17;12.43;;;460.80;1280.00;;;;;;5053840;28;20040;-64
2021/03/31 07:59:05;;;;;;;16.65;11.48;;;460.90;1280.00;;;;;;5069152;28;20174;-66
2021/03/31 08:01:38;;;;;;;21.23;10.13;;;461.10;1280.00;;;;;;5057201;28;20036;-62
2021/03/31 08:04:06;;;;;;;34.42;14.48;;;461.30;1203.20;;;;;;5057059;28;20032;-72
2021/03/31 08:06:39;;;;;;;33.88;15.50;;;461.50;1228.80;;;;;;5053482;28;20064;-62
2021/03/31 08:09:08;;;;;;;20.00;11.43;;;486.40;1177.60;;;;;;5053383;28;20032;-63
2021/03/31 08:11:37;;;;;;;19.02;9.20;;;486.50;1152.00;;;;;;5053436;28;20117;-62
2021/03/31 08:14:06;;;;;;;14.18;8.93;;;486.70;1100.80;;;;;;5053477;28;20036;-66
2021/03/31 08:16:41;;;;;;;19.15;9.45;;;486.80;1075.20;;;;;;5053850;28;20464;-66
2021/03/31 08:19:38;;;;;;;19.50;12.02;;;487.10;1100.80;;;;;;5035560;28;20382;-62
2021/03/31 08:22:37;;;;;;;17.02;10.48;;;487.20;1075.20;;;;;;5052460;28;20041;-64
2021/03/31 08:25:17;;;;;;;14.25;8.98;;;487.30;1024.00;;;;;;5068189;28;20032;-70
2021/03/31 08:27:55;;;;;;;12.52;8.20;;;512.20;1024.00;;;;;;5071968;28;20474;-69
2021/03/31 08:30:21;;;;;;;9.90;7.32;;;512.30;1049.60;;;;;;5072680;28;20056;-67
2021/03/31 08:32:47;;;;;;;12.30;6.90;;;512.40;1024.00;;;;;;5069994;28;20020;-66
2021/03/31 08:35:15;;;;;;;10.70;6.60;;;512.30;998.40;;;;;;5072550;28;20051;-71
2021/03/31 08:37:43;;;;;;;12.02;7.70;;;512.30;1024.00;;;;;;5072056;28;20036;-72
2021/03/31 08:40:09;;;;;;;14.02;7.50;;;512.40;1024.00;;;;;;5072401;28;20047;-70
2021/03/31 08:42:35;;;;;;;12.05;7.75;;;512.50;1049.60;;;;;;5072158;28;20070;-71
2021/03/31 08:45:03;;;;;;;14.23;8.93;;;512.60;1049.60;;;;;;5034528;28;20021;-73
2021/03/31 08:47:33;;;;;;;17.13;8.93;;;512.70;1075.20;;;;;;5052529;28;20100;-72
2021/03/31 08:50:07;;;;;;;9.05;7.10;;;512.70;998.40;;;;;;5052119;28;20028;-68
2021/03/31 08:52:37;;;;;;;15.38;7.07;;;512.40;972.80;;;;;;5052420;28;20017;-69
2021/03/31 08:55:12;;;;;;;9.98;6.75;;;512.20;998.40;;;;;;5052220;28;20378;-69
2021/03/31 08:57:38;;;;;;;13.77;7.78;;;512.30;1024.00;;;;;;5052702;28;20527;-69
2021/03/31 09:00:08;;;;;;;16.05;8.35;;;512.40;998.40;;;;;;5052006;28;20029;-70
2021/03/31 09:02:37;;;;;;;12.05;6.85;;;512.50;1024.00;;;;;;5056419;28;20024;-69
2021/03/31 09:05:05;;;;;;;10.75;6.28;;;512.40;1024.00;;;;;;5071981;28;20481;-69
2021/03/31 09:07:30;;;;;;;10.63;6.68;;;512.40;1024.00;;;;;;5072432;28;20021;-69
2021/03/31 09:09:57;;;;;;;9.73;6.10;;;512.30;1024.00;;;;;;5072194;28;20029;-70
2021/03/31 09:12:25;;;;;;;11.48;5.68;;;512.20;1049.60;;;;;;5072104;28;20365;-69
2021/03/31 09:14:54;;;;;;;6.88;4.90;;;512.10;1049.60;;;;;;5072540;28;20381;-68
2021/03/31 09:17:23;;;;;;;10.18;6.47;;;512.10;1049.60;;;;;;5071951;28;20095;-70
2021/03/31 09:19:54;;;;;;;12.02;5.50;;;512.10;1049.60;;;;;;5072381;28;20036;-64
2021/03/31 09:22:23;;;;;;;14.88;7.00;;;512.10;1049.60;;;;;;5059753;28;20021;-69
2021/03/31 09:24:57;;;;;;;15.00;7.00;;;512.10;1049.60;;;;;;5052067;28;20034;-67
2021/03/31 09:27:27;;;;;;;;;;;512.00;1049.60;;;;;;5067459;28;20469;-69
2021/03/31 09:29:54;;;;;;;10.20;6.45;;;512.10;1100.80;;;;;;5060994;28;20381;-68
2021/03/31 09:32:27;;;;;;;12.88;7.15;;;512.10;1075.20;;;;;;5060565;28;20035;-69
2021/03/31 09:34:53;;;;;;;13.10;7.40;;;512.10;1049.60;;;;;;5067009;28;20127;-69
2021/03/31 09:37:19;;;;;;;12.85;7.20;;;512.20;1024.00;;;;;;5069197;28;20057;-69
2021/03/31 09:39:49;;;;;;;13.70;7.60;;;512.20;1075.20;;;;;;5060878;28;20033;-69
2021/03/31 09:42:25;;;;;;;9.98;6.07;;;512.20;1024.00;;;;;;5071743;28;20028;-74
2021/03/31 09:44:53;;;;;;;6.97;5.85;;;512.20;1024.00;;;;;;5060748;28;20032;-68
2021/03/31 09:47:21;;;;;;;12.95;6.22;;;512.20;1024.00;;;;;;5055619;28;20071;-68
2021/03/31 09:49:51;;;;;;;10.23;5.68;;;512.20;1024.00;;;;;;5060505;28;20067;-68
2021/03/31 09:52:17;;;;;;;14.95;6.07;;;512.20;998.40;;;;;;5070284;28;20029;-65
2021/03/31 09:54:46;;;;;;;11.65;5.65;;;512.20;1049.60;;;;;;5069373;28;20051;-68
2021/03/31 09:57:15;;;;;;;12.95;6.05;;;512.30;1024.00;;;;;;5055357;28;20025;-69
2021/03/31 09:59:42;;;;;;;12.52;6.05;;;512.30;1024.00;;;;;;5055559;28;20025;-68
2021/03/31 10:02:09;;;;;;;10.85;6.25;;;512.30;1049.60;;;;;;5084575;28;20035;-64
2021/03/31 10:04:39;;;;;;;11.80;6.78;;;512.40;1024.00;;;;;;5094307;28;20032;-66
2021/03/31 10:07:21;;;;;;;8.63;6.65;;;512.40;1100.80;;;;;;5079367;28;20029;-65
2021/03/31 10:09:51;;;;;;;9.00;6.00;;;512.50;1075.20;;;;;;5062703;28;20175;-65
2021/03/31 10:12:29;;;;;;;10.70;6.45;;;512.60;1049.60;;;;;;5054695;28;20473;-67
2021/03/31 10:14:57;;;;;;;11.50;5.85;;;512.70;1024.00;;;;;;5057324;28;20033;-70
2021/03/31 10:17:28;;;;;;;9.80;5.85;;;512.80;1049.60;;;;;;5069957;28;20382;-63
2021/03/31 10:19:54;;;;;;;11.13;6.85;;;512.80;972.80;;;;;;5065928;28;20379;-70
2021/03/31 10:22:20;;;;;;;13.45;6.63;;;512.90;1049.60;;;;;;5057995;28;20040;-65
2021/03/31 10:24:50;;;;;;;20.45;7.25;;;537.60;1075.20;;;;;;5058112;28;20029;-69
2021/03/31 10:27:37;;;;;;;17.15;8.00;;;537.70;1024.00;;;;;;5068526;28;20029;-70
2021/03/31 10:30:04;;;;;;;11.63;6.88;;;537.80;1024.00;;;;;;5071902;28;20020;-71
2021/03/31 10:32:31;;;;;;;11.88;6.50;;;537.80;1049.60;;;;;;5092348;28;20020;-65
2021/03/31 10:34:57;;;;;;;9.85;5.78;;;537.80;1049.60;;;;;;5092386;28;20039;-65
2021/03/31 10:37:39;;;;;;;10.30;6.28;;;537.90;1075.20;;;;;;5092853;28;20389;-65
2021/03/31 10:40:37;;;;;;;12.20;5.32;;;538.00;1024.00;;;;;;5092814;28;20500;-64
2021/03/31 10:49:07;;;;;;;12.93;5.68;;;538.10;998.40;;;;;;5093266;28;20503;-63
2021/03/31 10:56:51;;;;;;;9.40;5.72;;;538.00;1024.00;;;;;;4978368;28;20041;-66
2021/03/31 10:59:17;;;;;;;11.38;6.10;;;538.00;998.40;;;;;;4973213;28;20085;-68
2021/03/31 11:01:43;;;;;;;8.98;5.43;;;538.00;1049.60;;;;;;4972998;28;20050;-63
2021/03/31 11:04:09;;;;;;;8.85;5.45;;;538.10;1024.00;;;;;;4973285;28;20023;-71
2021/03/31 11:06:34;;;;;;;9.38;5.45;;;538.10;1024.00;;;;;;4974722;28;20112;-66
2021/03/31 11:09:00;;;;;;;10.10;5.05;;;538.10;1024.00;;;;;;4980640;28;20018;-69
2021/03/31 11:11:26;;;;;;;6.10;4.05;;;538.20;1024.00;;;;;;4978221;28;20427;-63
2021/03/31 11:13:52;;;;;;;9.63;5.95;;;538.30;998.40;;;;;;4972988;28;20034;-70
2021/03/31 11:16:18;;;;;;;8.55;6.03;;;538.30;998.40;;;;;;4972922;28;20034;-70
2021/03/31 11:19:10;;;;;;;9.68;5.22;;;538.30;972.80;;;;;;4972746;28;20476;-71
2021/03/31 11:27:01;;;;;;;11.00;5.78;;;538.50;1024.00;;;;;;4972735;28;20093;-71
2021/03/31 11:29:27;;;;;;;12.02;6.07;;;538.50;998.40;;;;;;4972463;28;20019;-71
2021/03/31 11:31:53;;;;;;;13.70;5.40;;;538.50;998.40;;;;;;4973003;28;20118;-66
2021/03/31 11:34:19;;;;;;;8.45;5.03;;;538.50;1024.00;;;;;;5051267;28;20029;-65
2021/03/31 11:36:45;;;;;;;8.25;5.57;;;538.40;998.40;;;;;;5053399;28;20060;-65
2021/03/31 11:39:11;;;;;;;7.68;5.38;;;538.30;1024.00;;;;;;5052945;28;20025;-70
2021/03/31 11:41:37;;;;;;;13.10;7.32;;;538.20;998.40;;;;;;5019285;28;20465;-66
2021/03/31 11:44:04;;;;;;;9.10;5.95;;;538.30;1024.00;;;;;;5053021;28;20017;-67
2021/03/31 11:46:30;;;;;;;9.73;5.07;;;538.40;998.40;;;;;;5053209;28;20052;-71
2021/03/31 11:48:56;;;;;;;10.25;5.18;;;538.10;1024.00;;;;;;5053302;28;20641;-68
2021/03/31 11:51:22;;;;;;;8.00;5.35;;;538.10;1024.00;;;;;;5053051;28;20074;-70
2021/03/31 11:53:48;;;;;;;8.70;4.88;;;538.10;1024.00;;;;;;5053507;28;20036;-63
2021/03/31 11:56:14;;;;;;;14.73;4.65;;;538.10;1024.00;;;;;;5060190;28;20431;-68
2021/03/31 11:58:40;;;;;;;8.25;4.15;;;538.10;1049.60;;;;;;5064569;28;20037;-72
2021/03/31 12:01:06;;;;;;;8.68;4.47;;;538.10;1049.60;;;;;;5063756;28;20072;-71
2021/03/31 12:03:32;;;;;;;8.52;4.60;;;538.10;1049.60;;;;;;5052662;28;20021;-70
2021/03/31 12:05:58;;;;;;;12.45;6.15;;;538.20;1049.60;;;;;;5063581;28;20028;-66
2021/03/31 12:08:24;;;;;;;10.65;4.30;;;538.20;1049.60;;;;;;5052928;28;20028;-63
2021/03/31 12:10:50;;;;;;;10.98;4.45;;;538.30;1049.60;;;;;;5052785;28;20028;-67
2021/03/31 12:13:16;;;;;;;8.27;5.10;;;538.30;1024.00;;;;;;5058163;28;20103;-73
2021/03/31 12:15:41;;;;;;;6.65;4.53;;;538.30;1024.00;;;;;;5061217;28;20381;-72
2021/03/31 12:18:07;;;;;;;10.88;5.90;;;538.40;1049.60;;;;;;5052389;28;20025;-66
2021/03/31 12:20:33;;;;;;;8.25;5.43;;;538.50;1049.60;;;;;;5064142;28;20124;-72
2021/03/31 12:22:59;;;;;;;12.25;5.20;;;538.50;1024.00;;;;;;5083170;28;20399;-72
2021/03/31 12:25:25;;;;;;;9.10;5.28;;;563.20;1049.60;;;;;;5082201;28;20063;-68
2021/03/31 12:27:55;;;;;;;12.75;5.03;;;563.20;1049.60;;;;;;5068973;28;20070;-72
2021/03/31 12:30:22;;;;;;;11.00;5.55;;;563.20;1075.20;;;;;;5057385;28;20025;-66
2021/03/31 12:32:48;;;;;;;10.13;5.43;;;563.20;1024.00;;;;;;5052999;28;20473;-67
2021/03/31 12:35:14;;;;;;;12.05;5.38;;;563.20;1049.60;;;;;;5057620;28;20040;-63